USTRANSCOM 8631




KTCM
McChord Air Force Base
Tacoma,
PAED
Elmendorf Air Force Base
Elmendorf, Alaska

Activity Log

Date Flight Route Aircraft Duration
No Flights Yet

Route Details

Aircraft Information
Group: Boeing Common
Types: B752,B762,B763
Route Data
Demand: V
Distance: 1265nm
Duration: 3h 45m
Recm'd Route: ALDER2 ALDER J1 SEA J502 ANN J195 BKA J605 MDO J804R TED J125 TAGER MEMRY GRUUB1
Origin Wx: KTCM 252258Z AUTO 13003KT 10SM CLR 03/02 A3026 RMK AO2 SLP254 T00340019 RVRNO $
Dest. Wx: PAED 252323Z 00000KT 7SM -SN SCT020 BKN055 M01/M03 A3006 RMK AO2A SLP177
Notes: USTRANSCOM CONTRACT FLIGHT

Financial History
Total Freight: 0lbs
Average Load: 0lbs/flt
Fuel Used: 0lbs
Avg. Fuel Used: 0lbs/flt
Fuel Expense: $0
Avg. Fuel Expense: $0
Avg. Fuel Cost: $0/lbs
Total Gross Income: $0
Pilot Pay: $0
Total Expenses: $0
Total Revenue: $0
Average Revenue: $0